createdAt,value
2022-09-28T00:59:39.663Z,992.65
2022-09-28T01:00:38.488Z,992.78
2022-09-28T01:01:38.484Z,992.81
2022-09-28T01:02:39.880Z,992.82
2022-09-28T01:03:39.133Z,992.83
2022-09-28T01:04:38.353Z,992.78
2022-09-28T01:05:39.176Z,992.80
2022-09-28T01:06:38.354Z,992.84
2022-09-28T01:07:38.336Z,992.81
2022-09-28T01:08:39.146Z,992.82
2022-09-28T01:09:38.344Z,992.83
2022-09-28T01:10:39.209Z,992.85
2022-09-28T01:11:38.295Z,992.86
2022-09-28T01:12:38.245Z,992.86
2022-09-28T01:13:39.175Z,992.90
2022-09-28T01:14:38.244Z,992.86
2022-09-28T01:15:38.982Z,992.87
2022-09-28T01:16:39.207Z,992.80
2022-09-28T01:17:39.047Z,992.87
2022-09-28T01:18:39.588Z,992.83
2022-09-28T01:19:39.108Z,992.83
2022-09-28T01:20:39.014Z,992.78
2022-09-28T01:21:38.921Z,992.83
2022-09-28T01:22:39.091Z,992.83
2022-09-28T01:23:38.160Z,992.88
2022-09-28T01:24:38.115Z,992.87
2022-09-28T01:25:38.076Z,992.89
2022-09-28T01:26:38.089Z,992.89
2022-09-28T01:27:38.048Z,992.87
2022-09-28T01:28:38.758Z,992.90
2022-09-28T01:29:37.977Z,992.92
2022-09-28T01:30:38.830Z,992.90
2022-09-28T01:31:38.781Z,992.91
2022-09-28T01:32:37.961Z,992.93
2022-09-28T01:33:38.791Z,992.92
2022-09-28T01:34:38.689Z,992.88
2022-09-28T01:35:37.968Z,992.91
2022-09-28T01:36:38.758Z,992.88
2022-09-28T01:37:38.659Z,992.91
2022-09-28T01:38:37.890Z,992.90
2022-09-28T01:39:37.892Z,992.86
2022-09-28T01:40:38.432Z,992.86
2022-09-28T01:41:37.823Z,992.84
2022-09-28T01:42:38.704Z,992.84
2022-09-28T01:43:37.900Z,992.80
2022-09-28T01:44:41.429Z,992.81
2022-09-28T01:45:38.717Z,992.76
2022-09-28T01:46:39.216Z,992.77
2022-09-28T01:47:38.722Z,992.75
2022-09-28T01:48:37.730Z,992.77
2022-09-28T01:49:38.542Z,992.81
2022-09-28T01:50:38.434Z,992.77
2022-09-28T01:51:38.593Z,992.81
2022-09-28T01:52:38.534Z,992.78
2022-09-28T01:53:38.403Z,992.73
2022-09-28T01:54:38.052Z,992.76
2022-09-28T01:55:38.471Z,992.72
2022-09-28T01:56:38.092Z,992.75
2022-09-28T01:57:38.572Z,992.73
2022-09-28T01:58:38.436Z,992.78
2022-09-28T01:59:37.606Z,992.76
2022-09-28T02:00:38.577Z,992.76
2022-09-28T02:01:38.451Z,992.76
2022-09-28T02:02:38.303Z,992.78
2022-09-28T02:03:38.472Z,992.79
2022-09-28T02:04:38.374Z,992.79
2022-09-28T02:05:38.275Z,992.84
2022-09-28T02:06:37.491Z,992.82
2022-09-28T02:07:38.343Z,992.83
2022-09-28T02:08:38.245Z,992.90
2022-09-28T02:09:37.426Z,992.86
2022-09-28T02:10:38.316Z,992.85
2022-09-28T02:11:37.429Z,992.84
2022-09-28T02:12:37.405Z,992.81
2022-09-28T02:13:37.415Z,992.84
2022-09-28T02:14:38.184Z,992.85
2022-09-28T02:15:38.343Z,992.80
2022-09-28T02:16:38.291Z,992.86
2022-09-28T02:17:37.326Z,992.85
2022-09-28T02:18:38.057Z,992.80
2022-09-28T02:19:37.320Z,992.78
2022-09-28T02:20:38.126Z,992.80
2022-09-28T02:21:38.024Z,992.77
2022-09-28T02:22:37.265Z,992.79
2022-09-28T02:23:38.092Z,992.78
2022-09-28T02:24:38.726Z,992.76
2022-09-28T02:25:37.207Z,992.77
2022-09-28T02:26:38.056Z,992.78
2022-09-28T02:27:37.316Z,992.77
2022-09-28T02:28:37.169Z,992.71
2022-09-28T02:29:37.325Z,992.73
2022-09-28T02:30:37.937Z,992.73
2022-09-28T02:31:38.105Z,992.71
2022-09-28T02:32:37.127Z,992.71
2022-09-28T02:33:37.889Z,992.68
2022-09-28T02:34:38.059Z,992.68
2022-09-28T02:35:38.592Z,992.71
2022-09-28T02:36:37.087Z,992.71
2022-09-28T02:37:38.019Z,992.70
2022-09-28T02:38:37.935Z,992.70
2022-09-28T02:39:37.829Z,992.70
2022-09-28T02:40:37.074Z,992.66
2022-09-28T02:41:37.020Z,992.65
2022-09-28T02:42:37.801Z,992.63
2022-09-28T02:43:37.024Z,992.66
2022-09-28T02:44:36.978Z,992.65
2022-09-28T02:45:37.793Z,992.69
2022-09-28T02:46:37.668Z,992.65
2022-09-28T02:47:37.828Z,992.68
2022-09-28T02:48:43.734Z,992.63
2022-09-28T02:49:37.925Z,992.65
2022-09-28T02:50:36.868Z,992.65
2022-09-28T02:51:38.299Z,992.60
2022-09-28T02:52:37.609Z,992.63
2022-09-28T02:53:37.761Z,992.61
2022-09-28T02:54:37.670Z,992.64
2022-09-28T02:55:37.574Z,992.65
2022-09-28T02:56:37.795Z,992.68
2022-09-28T02:57:37.639Z,992.69
2022-09-28T02:58:37.541Z,992.67
2022-09-28T02:59:37.702Z,992.72
2022-09-28T03:00:37.641Z,992.68
2022-09-28T03:01:37.509Z,992.71
2022-09-28T03:02:36.716Z,992.71
2022-09-28T03:03:37.571Z,992.67
2022-09-28T03:04:37.472Z,992.67
2022-09-28T03:05:37.640Z,992.66
2022-09-28T03:06:36.661Z,992.66
2022-09-28T03:07:37.447Z,992.69
2022-09-28T03:08:37.602Z,992.66
2022-09-28T03:09:37.510Z,992.63
2022-09-28T03:10:37.410Z,992.63
2022-09-28T03:11:36.611Z,992.61
2022-09-28T03:12:36.555Z,992.57
2022-09-28T03:13:36.575Z,992.55
2022-09-28T03:14:36.572Z,992.57
2022-09-28T03:15:36.556Z,992.56
2022-09-28T03:16:37.403Z,992.56
2022-09-28T03:17:37.253Z,992.57
2022-09-28T03:18:37.414Z,992.57
2022-09-28T03:19:36.615Z,992.55
2022-09-28T03:20:36.524Z,992.52
2022-09-28T03:21:37.381Z,992.53
2022-09-28T03:22:37.284Z,992.53
2022-09-28T03:23:37.185Z,992.51
2022-09-28T03:24:36.434Z,992.47
2022-09-28T03:25:36.404Z,992.47
2022-09-28T03:26:37.160Z,992.48
2022-09-28T03:27:36.335Z,992.44
2022-09-28T03:28:36.363Z,992.47
2022-09-28T03:29:36.326Z,992.41
2022-09-28T03:30:36.581Z,992.37
2022-09-28T03:31:37.253Z,992.15
2022-09-28T03:32:36.274Z,992.08
2022-09-28T03:33:36.326Z,991.99
2022-09-28T03:34:36.305Z,991.93
2022-09-28T03:35:37.073Z,991.93
2022-09-28T03:36:36.967Z,991.92
2022-09-28T03:37:36.271Z,991.92
2022-09-28T03:38:37.025Z,991.94
2022-09-28T03:39:36.196Z,991.90
2022-09-28T03:40:37.130Z,991.91
2022-09-28T03:41:37.011Z,991.94
2022-09-28T03:42:36.907Z,991.93
2022-09-28T03:43:37.065Z,991.98
2022-09-28T03:44:36.262Z,991.99
2022-09-28T03:45:36.914Z,992.00
2022-09-28T03:46:37.028Z,992.03
2022-09-28T03:47:36.937Z,992.01
2022-09-28T03:48:36.866Z,991.99
2022-09-28T03:49:36.996Z,991.95
2022-09-28T03:50:36.610Z,991.97
2022-09-28T03:51:36.812Z,991.97
2022-09-28T03:52:36.966Z,991.95
2022-09-28T03:53:36.872Z,991.95
2022-09-28T03:54:35.960Z,991.95
2022-09-28T03:55:36.932Z,991.92
2022-09-28T03:56:36.839Z,991.99
2022-09-28T03:57:36.742Z,991.92
2022-09-28T03:58:35.954Z,991.94
2022-09-28T03:59:36.229Z,991.97
2022-09-28T04:00:36.286Z,991.92
2022-09-28T04:01:36.257Z,991.94
2022-09-28T04:02:36.252Z,991.98
2022-09-28T04:03:36.231Z,991.99
2022-09-28T04:04:35.842Z,992.02
2022-09-28T04:05:36.744Z,992.02
2022-09-28T04:06:37.252Z,992.02
2022-09-28T04:07:35.797Z,992.00
2022-09-28T04:08:36.730Z,992.03
2022-09-28T04:09:35.811Z,991.99
2022-09-28T04:10:35.760Z,992.05
2022-09-28T04:11:59.500Z,992.03
2022-09-28T04:12:36.710Z,992.06
2022-09-28T04:13:36.488Z,992.10
2022-09-28T04:14:35.722Z,992.07
2022-09-28T04:15:35.680Z,992.09
2022-09-28T04:16:36.507Z,992.08
2022-09-28T04:17:39.905Z,992.11
2022-09-28T04:18:35.625Z,992.10
2022-09-28T04:19:35.632Z,992.08
2022-09-28T04:20:36.611Z,992.07
2022-09-28T04:21:36.487Z,992.07
2022-09-28T04:22:36.384Z,992.07
2022-09-28T04:23:36.555Z,992.06
2022-09-28T04:24:36.454Z,992.05
2022-09-28T04:25:35.542Z,992.03
2022-09-28T04:26:36.540Z,992.02
2022-09-28T04:27:35.612Z,992.07
2022-09-28T04:28:36.322Z,992.10
2022-09-28T04:29:36.508Z,992.07
2022-09-28T04:30:36.394Z,992.07
2022-09-28T04:31:35.654Z,992.08
2022-09-28T04:32:35.666Z,992.07
2022-09-28T04:33:35.644Z,992.06
2022-09-28T04:34:40.663Z,992.07
2022-09-28T04:35:36.394Z,992.08
2022-09-28T04:36:35.666Z,992.10
2022-09-28T04:37:35.726Z,992.06
2022-09-28T04:38:52.277Z,992.11
2022-09-28T04:39:37.315Z,992.12
2022-09-28T04:40:36.832Z,992.10
2022-09-28T04:41:35.475Z,992.14
2022-09-28T04:42:35.298Z,992.13
2022-09-28T04:43:35.286Z,992.13
2022-09-28T04:44:36.079Z,992.08
2022-09-28T04:45:36.289Z,992.11
2022-09-28T04:46:36.137Z,992.10
2022-09-28T04:47:35.227Z,992.12
2022-09-28T04:48:35.268Z,992.13
2022-09-28T04:49:36.118Z,992.15
2022-09-28T04:50:35.207Z,992.08
2022-09-28T04:51:35.186Z,992.17
2022-09-28T04:52:36.109Z,992.17
2022-09-28T04:53:35.968Z,992.16
2022-09-28T04:54:35.213Z,992.15
2022-09-28T04:55:35.178Z,992.14
2022-09-28T04:56:35.106Z,992.08
2022-09-28T04:57:35.850Z,992.12
2022-09-28T04:58:35.117Z,992.13
2022-09-28T04:59:35.920Z,992.09
2022-09-28T05:00:35.817Z,992.10
2022-09-28T05:01:35.128Z,992.10
2022-09-28T05:02:35.066Z,992.06
2022-09-28T05:03:35.050Z,992.10
2022-09-28T05:04:35.031Z,992.06
2022-09-28T05:05:35.089Z,992.14
2022-09-28T05:06:35.076Z,992.12
2022-09-28T05:07:35.020Z,992.15
2022-09-28T05:08:34.921Z,992.12
2022-09-28T05:09:38.411Z,992.08
2022-09-28T05:10:35.881Z,992.15
2022-09-28T05:11:35.784Z,992.10
2022-09-28T05:12:36.350Z,992.11
2022-09-28T05:13:35.893Z,992.11
2022-09-28T05:14:35.749Z,992.08
2022-09-28T05:15:35.651Z,992.05
2022-09-28T05:16:35.057Z,992.12
2022-09-28T05:17:35.733Z,992.11
2022-09-28T05:18:35.622Z,992.07
2022-09-28T05:19:34.775Z,992.11
2022-09-28T05:20:35.683Z,992.09
2022-09-28T05:21:35.592Z,992.13
2022-09-28T05:22:34.763Z,992.05
2022-09-28T05:23:34.740Z,992.03
2022-09-28T05:24:34.713Z,992.02
2022-09-28T05:25:35.266Z,992.04
2022-09-28T05:26:35.622Z,991.99
2022-09-28T05:27:35.522Z,991.99
2022-09-28T05:28:35.430Z,991.98
2022-09-28T05:29:35.594Z,991.96
2022-09-28T05:30:34.663Z,991.95
2022-09-28T05:31:34.632Z,991.98
2022-09-28T05:32:35.554Z,991.97
2022-09-28T05:33:35.462Z,991.96
2022-09-28T05:34:34.574Z,991.99
2022-09-28T05:35:35.538Z,992.01
2022-09-28T05:36:35.434Z,992.00
2022-09-28T05:37:35.335Z,991.95
2022-09-28T05:38:35.495Z,992.00
2022-09-28T05:39:35.395Z,991.96
2022-09-28T05:40:34.544Z,991.94
2022-09-28T05:41:35.466Z,991.97
2022-09-28T05:42:34.569Z,991.89
2022-09-28T05:43:35.273Z,991.94
2022-09-28T05:44:35.176Z,991.92
2022-09-28T05:45:34.417Z,991.94
2022-09-28T05:46:34.400Z,991.94
2022-09-28T05:47:35.145Z,991.96
2022-09-28T05:48:34.357Z,991.93
2022-09-28T05:49:35.205Z,991.91
2022-09-28T05:50:35.108Z,991.88
2022-09-28T05:51:34.307Z,991.94
2022-09-28T05:52:35.176Z,991.92
2022-09-28T05:53:35.078Z,991.94
2022-09-28T05:54:35.252Z,991.91
2022-09-28T05:55:34.282Z,991.95
2022-09-28T05:56:35.051Z,991.91
2022-09-28T05:57:35.219Z,991.88
2022-09-28T05:58:35.110Z,991.90
2022-09-28T05:59:35.672Z,991.89
2022-09-28T06:00:34.210Z,991.92
2022-09-28T06:01:35.108Z,991.91
2022-09-28T06:02:35.054Z,991.95
2022-09-28T06:03:35.140Z,992.00
2022-09-28T06:04:34.121Z,991.97
2022-09-28T06:05:34.967Z,991.95
2022-09-28T06:06:34.100Z,991.96
2022-09-28T06:07:35.020Z,991.98
2022-09-28T06:08:35.515Z,991.98
2022-09-28T06:09:34.071Z,991.95
2022-09-28T06:10:34.075Z,992.02
2022-09-28T06:11:35.180Z,992.05
2022-09-28T06:12:34.790Z,992.06
2022-09-28T06:13:34.950Z,992.07
2022-09-28T06:14:34.004Z,992.07
2022-09-28T06:15:33.999Z,992.05
2022-09-28T06:16:35.044Z,992.08
2022-09-28T06:17:33.933Z,992.07
2022-09-28T06:18:34.728Z,992.09
2022-09-28T06:19:35.374Z,992.09
2022-09-28T06:20:34.807Z,992.02
2022-09-28T06:21:34.044Z,992.06
2022-09-28T06:22:33.922Z,992.09
2022-09-28T06:23:34.752Z,992.08
2022-09-28T06:24:33.873Z,992.08
2022-09-28T06:25:33.852Z,992.08
2022-09-28T06:26:34.726Z,992.08
2022-09-28T06:27:34.634Z,992.13
2022-09-28T06:28:34.794Z,992.10
2022-09-28T06:29:33.786Z,992.11
2022-09-28T06:30:35.270Z,992.13
2022-09-28T06:31:34.503Z,992.16
2022-09-28T06:32:33.786Z,992.14
2022-09-28T06:33:33.724Z,992.16
2022-09-28T06:34:33.705Z,992.13
2022-09-28T06:35:35.135Z,992.16
2022-09-28T06:36:33.723Z,992.16
2022-09-28T06:37:33.678Z,992.20
2022-09-28T06:38:34.605Z,992.17
2022-09-28T06:39:33.627Z,992.19
2022-09-28T06:40:34.438Z,992.23
2022-09-28T06:41:34.571Z,992.23
2022-09-28T06:42:33.736Z,992.25
2022-09-28T06:43:34.636Z,992.37
2022-09-28T06:44:34.534Z,992.34
2022-09-28T06:45:33.715Z,992.36
2022-09-28T06:46:33.627Z,992.38
2022-09-28T06:47:33.581Z,992.43
2022-09-28T06:48:33.628Z,992.43
2022-09-28T06:49:33.550Z,992.41
2022-09-28T06:50:33.489Z,992.41
2022-09-28T06:51:34.380Z,992.44
2022-09-28T06:52:34.279Z,992.41
2022-09-28T06:53:33.457Z,992.45
2022-09-28T06:54:34.338Z,992.43
2022-09-28T06:55:33.548Z,992.42
2022-09-28T06:56:33.440Z,992.45
2022-09-28T06:57:34.322Z,992.43
2022-09-28T06:58:34.210Z,992.42
2022-09-28T06:59:34.120Z,992.43
2022-09-28T07:00:33.361Z,992.42
2022-09-28T07:01:33.385Z,992.42
2022-09-28T07:02:34.145Z,992.40
2022-09-28T07:03:33.373Z,992.43
2022-09-28T07:04:33.381Z,992.43
2022-09-28T07:05:34.060Z,992.44
2022-09-28T07:06:34.211Z,992.44
2022-09-28T07:07:33.263Z,992.41
2022-09-28T07:08:33.233Z,992.46
2022-09-28T07:09:36.939Z,992.42
2022-09-28T07:10:34.252Z,992.46
2022-09-28T07:11:33.203Z,992.47
2022-09-28T07:12:34.156Z,992.49
2022-09-28T07:13:49.510Z,992.52
2022-09-28T07:14:47.352Z,992.49
2022-09-28T07:15:34.883Z,992.48
2022-09-28T07:17:01.978Z,992.47
2022-09-28T07:17:37.750Z,992.50
2022-09-28T07:18:34.134Z,992.56
2022-09-28T07:19:33.128Z,992.55
2022-09-28T07:20:43.128Z,992.59
2022-09-28T07:21:34.094Z,992.62
2022-09-28T07:22:42.329Z,992.62
2022-09-28T07:23:45.128Z,992.63
2022-09-28T07:24:34.785Z,992.61
2022-09-28T07:25:33.927Z,992.64
2022-09-28T07:26:33.024Z,992.64
2022-09-28T07:27:33.166Z,992.72
2022-09-28T07:28:33.893Z,992.69
2022-09-28T07:29:32.925Z,992.72
2022-09-28T07:30:33.327Z,992.72
2022-09-28T07:31:33.866Z,992.71
2022-09-28T07:32:32.918Z,992.74
2022-09-28T07:33:33.669Z,992.77
2022-09-28T07:34:32.886Z,992.74
2022-09-28T07:35:33.733Z,992.78
2022-09-28T07:36:32.892Z,992.79
2022-09-28T07:37:32.867Z,992.77
2022-09-28T07:38:33.105Z,992.75
2022-09-28T07:39:33.277Z,992.77
2022-09-28T07:40:32.874Z,992.72
2022-09-28T07:41:33.108Z,992.79
2022-09-28T07:42:32.776Z,992.76
2022-09-28T07:43:32.800Z,992.82
2022-09-28T07:44:32.965Z,992.89
2022-09-28T07:45:32.800Z,992.90
2022-09-28T07:46:32.756Z,992.91
2022-09-28T07:47:35.301Z,992.90
2022-09-28T07:48:32.678Z,992.84
2022-09-28T07:49:48.138Z,992.86
2022-09-28T07:50:32.693Z,992.93
2022-09-28T07:51:32.671Z,992.92
2022-09-28T07:52:32.840Z,992.93
2022-09-28T07:53:32.728Z,992.93
2022-09-28T07:54:32.622Z,992.89
2022-09-28T07:55:32.712Z,992.94
2022-09-28T07:56:32.983Z,992.94
2022-09-28T07:57:32.684Z,992.97
2022-09-28T07:58:32.601Z,993.01
2022-09-28T07:59:32.616Z,993.02
2022-09-28T08:00:44.395Z,993.02
2022-09-28T08:01:32.869Z,993.03
2022-09-28T08:02:32.558Z,992.99
2022-09-28T08:03:33.345Z,992.98
2022-09-28T08:04:32.505Z,993.01
2022-09-28T08:05:32.555Z,993.06
2022-09-28T08:06:32.443Z,993.07
2022-09-28T08:07:32.681Z,993.10
2022-09-28T08:08:32.610Z,993.17
2022-09-28T08:09:32.417Z,993.10
2022-09-28T08:10:32.504Z,993.14
2022-09-28T08:11:32.501Z,993.11
2022-09-28T08:12:32.415Z,993.16
2022-09-28T08:13:32.406Z,993.14
2022-09-28T08:14:32.325Z,993.11
2022-09-28T08:15:32.355Z,993.13
2022-09-28T08:16:32.651Z,993.20
2022-09-28T08:17:32.477Z,993.25
2022-09-28T08:18:32.246Z,993.25
2022-09-28T08:19:32.397Z,993.26
2022-09-28T08:20:32.232Z,993.29
2022-09-28T08:21:32.317Z,993.31
2022-09-28T08:22:32.255Z,993.40
2022-09-28T08:23:32.247Z,993.33
2022-09-28T08:24:32.312Z,993.30
2022-09-28T08:25:32.870Z,993.39
2022-09-28T08:26:32.379Z,993.40
2022-09-28T08:27:32.231Z,993.43
2022-09-28T08:28:32.166Z,993.40
2022-09-28T08:29:32.190Z,993.40
2022-09-28T08:30:32.310Z,993.36
2022-09-28T08:31:32.316Z,993.40
2022-09-28T08:32:32.127Z,993.43
2022-09-28T08:33:32.052Z,993.46
2022-09-28T08:34:32.070Z,993.40
2022-09-28T08:35:32.084Z,993.41
2022-09-28T08:36:32.065Z,993.38
2022-09-28T08:37:32.071Z,993.39
2022-09-28T08:38:32.101Z,993.37
2022-09-28T08:39:32.711Z,993.40
2022-09-28T08:40:31.997Z,993.41
2022-09-28T08:41:32.783Z,993.45
2022-09-28T08:42:31.964Z,993.45
2022-09-28T08:43:32.031Z,993.48
2022-09-28T08:44:32.054Z,993.50
2022-09-28T08:45:31.863Z,993.53
2022-09-28T08:46:32.859Z,993.51
2022-09-28T08:47:32.713Z,993.55
2022-09-28T08:48:31.834Z,993.54
2022-09-28T08:49:31.978Z,993.53
2022-09-28T08:50:33.304Z,993.53
2022-09-28T08:51:31.774Z,993.48
2022-09-28T08:52:31.787Z,993.55
2022-09-28T08:53:31.774Z,993.68
2022-09-28T08:54:31.920Z,993.60
2022-09-28T08:55:31.753Z,993.69
2022-09-28T08:56:32.617Z,993.69
2022-09-28T08:57:32.538Z,993.69
2022-09-28T08:58:31.725Z,993.71
2022-09-28T08:59:32.001Z,993.68
2022-09-28T09:00:31.650Z,993.74
2022-09-28T09:01:31.772Z,993.68
2022-09-28T09:02:31.813Z,993.67
2022-09-28T09:03:31.608Z,993.73
2022-09-28T09:04:32.616Z,993.77
2022-09-28T09:05:31.593Z,993.74
2022-09-28T09:06:31.588Z,993.70
2022-09-28T09:07:32.332Z,993.81
2022-09-28T09:08:32.491Z,993.71
2022-09-28T09:09:32.388Z,993.70
2022-09-28T09:10:31.588Z,993.65
2022-09-28T09:11:31.533Z,993.71
2022-09-28T09:12:31.520Z,993.74
2022-09-28T09:13:31.450Z,993.72
2022-09-28T09:14:31.460Z,993.74
2022-09-28T09:15:32.323Z,993.72
2022-09-28T09:16:31.440Z,993.77
2022-09-28T09:17:32.391Z,993.83
2022-09-28T09:18:32.912Z,993.80
2022-09-28T09:19:32.201Z,993.75
2022-09-28T09:20:32.359Z,993.79
2022-09-28T09:21:32.263Z,993.71
2022-09-28T09:22:32.164Z,993.84
2022-09-28T09:23:31.312Z,993.76
2022-09-28T09:24:32.232Z,993.77
2022-09-28T09:25:35.428Z,993.72
2022-09-28T09:26:33.062Z,993.76
2022-09-28T09:27:32.195Z,993.76
2022-09-28T09:28:32.112Z,993.72
2022-09-28T09:29:31.249Z,993.72
2022-09-28T09:30:31.806Z,993.72
2022-09-28T09:31:32.066Z,993.73
2022-09-28T09:32:31.187Z,993.78
2022-09-28T09:33:31.216Z,993.74
2022-09-28T09:34:32.040Z,993.61
2022-09-28T09:35:31.938Z,993.63
2022-09-28T09:36:31.144Z,993.69
2022-09-28T09:37:32.006Z,993.77
2022-09-28T09:38:31.910Z,993.91
2022-09-28T09:39:32.076Z,993.87
2022-09-28T09:40:32.008Z,993.83
2022-09-28T09:41:31.879Z,993.73
2022-09-28T09:42:32.037Z,993.86
2022-09-28T09:43:32.009Z,993.89
2022-09-28T09:44:31.846Z,993.90
2022-09-28T09:45:31.065Z,993.86
2022-09-28T09:46:32.628Z,993.84
2022-09-28T09:47:31.815Z,993.83
2022-09-28T09:48:31.719Z,993.80
2022-09-28T09:49:31.065Z,993.86
2022-09-28T09:50:31.780Z,993.87
2022-09-28T09:51:32.381Z,993.94
2022-09-28T09:52:31.850Z,993.86
2022-09-28T09:53:36.098Z,993.91
2022-09-28T09:54:32.671Z,993.87
2022-09-28T09:55:30.863Z,993.90
2022-09-28T09:56:31.712Z,993.88
2022-09-28T09:57:31.622Z,993.89
2022-09-28T09:58:31.784Z,993.94
2022-09-28T09:59:31.688Z,993.95
2022-09-28T10:00:30.826Z,993.92
2022-09-28T10:01:31.832Z,993.87
2022-09-28T10:02:31.753Z,993.89
2022-09-28T10:03:31.554Z,993.85
2022-09-28T10:04:31.716Z,993.97
2022-09-28T10:05:31.624Z,993.94
2022-09-28T10:06:30.705Z,993.95
2022-09-28T10:07:31.634Z,993.90
2022-09-28T10:08:30.651Z,993.90
2022-09-28T10:09:31.495Z,993.94
2022-09-28T10:10:31.397Z,993.99
2022-09-28T10:11:30.628Z,993.99
2022-09-28T10:12:31.461Z,994.00
2022-09-28T10:13:30.597Z,994.11
2022-09-28T10:14:31.527Z,994.07
2022-09-28T10:15:31.426Z,994.10
2022-09-28T10:16:30.622Z,994.11
2022-09-28T10:17:31.488Z,994.19
2022-09-28T10:18:31.397Z,994.10
2022-09-28T10:19:31.299Z,994.15
2022-09-28T10:20:31.458Z,994.23
2022-09-28T10:21:31.368Z,994.20
2022-09-28T10:22:31.272Z,994.21
2022-09-28T10:23:31.460Z,994.17
2022-09-28T10:24:30.818Z,994.22
2022-09-28T10:25:31.241Z,994.18
2022-09-28T10:26:31.402Z,994.27
2022-09-28T10:27:30.425Z,994.20
2022-09-28T10:28:31.211Z,994.26
2022-09-28T10:29:32.248Z,994.26
2022-09-28T10:30:30.428Z,994.24
2022-09-28T10:31:31.172Z,994.25
2022-09-28T10:32:30.333Z,994.23
2022-09-28T10:33:31.233Z,994.24
2022-09-28T10:34:31.165Z,994.28
2022-09-28T10:35:30.393Z,994.27
2022-09-28T10:36:30.286Z,994.26
2022-09-28T10:37:31.115Z,994.28
2022-09-28T10:38:30.268Z,994.27
2022-09-28T10:39:30.354Z,994.26
2022-09-28T10:40:31.173Z,994.28
2022-09-28T10:41:30.257Z,994.25
2022-09-28T10:42:31.168Z,994.27
2022-09-28T10:43:30.218Z,994.28
2022-09-28T10:44:30.186Z,994.26
2022-09-28T10:45:30.156Z,994.26
2022-09-28T10:46:31.068Z,994.29
2022-09-28T10:47:30.919Z,994.27
2022-09-28T10:48:30.167Z,994.32
2022-09-28T10:49:31.080Z,994.30
2022-09-28T10:50:30.887Z,994.32
2022-09-28T10:51:31.046Z,994.32
2022-09-28T10:52:30.948Z,994.32
2022-09-28T10:53:30.852Z,994.40
2022-09-28T10:54:31.010Z,994.34
2022-09-28T10:55:30.040Z,994.36
2022-09-28T10:56:30.060Z,994.40
2022-09-28T10:57:30.735Z,994.40
2022-09-28T10:58:30.101Z,994.49
2022-09-28T10:59:30.791Z,994.48
2022-09-28T11:00:30.692Z,994.50
2022-09-28T11:01:30.049Z,994.47
2022-09-28T11:02:35.698Z,994.50
2022-09-28T11:03:29.943Z,994.44
2022-09-28T11:04:30.823Z,994.44
2022-09-28T11:05:29.894Z,994.41
2022-09-28T11:06:29.817Z,994.43
2022-09-28T11:07:30.863Z,994.44
2022-09-28T11:08:30.706Z,994.45
2022-09-28T11:09:31.159Z,994.45
2022-09-28T11:10:30.755Z,994.42
2022-09-28T11:11:30.675Z,994.44
2022-09-28T11:12:30.565Z,994.34
2022-09-28T11:13:30.790Z,994.47
2022-09-28T11:14:30.657Z,994.51
2022-09-28T11:15:29.698Z,994.53
2022-09-28T11:16:30.741Z,994.56
2022-09-28T11:17:30.611Z,994.62
2022-09-28T11:18:29.731Z,994.63
2022-09-28T11:19:30.677Z,994.63
2022-09-28T11:20:29.648Z,994.66
2022-09-28T11:21:30.469Z,994.71
2022-09-28T11:22:29.646Z,994.72
2022-09-28T11:23:30.543Z,994.70
2022-09-28T11:24:30.437Z,994.74
2022-09-28T11:25:30.356Z,994.70
2022-09-28T11:26:29.602Z,994.65
2022-09-28T11:27:30.404Z,994.66
2022-09-28T11:28:30.587Z,994.73
2022-09-28T11:29:30.472Z,994.70
2022-09-28T11:30:29.711Z,994.64
2022-09-28T11:31:29.649Z,994.58
2022-09-28T11:32:30.437Z,994.61
2022-09-28T11:33:30.343Z,994.59
2022-09-28T11:34:47.815Z,994.63
2022-09-28T11:35:31.436Z,994.65
2022-09-28T11:36:29.471Z,994.69
2022-09-28T11:37:29.560Z,994.66
2022-09-28T11:38:30.374Z,994.66
2022-09-28T11:39:30.291Z,994.68
2022-09-28T11:40:29.801Z,994.59
2022-09-28T11:41:30.338Z,994.61
2022-09-28T11:42:30.268Z,994.59
2022-09-28T11:43:30.157Z,994.60
2022-09-28T11:44:33.366Z,994.68
2022-09-28T11:45:29.299Z,994.69
2022-09-28T11:46:30.293Z,994.63
2022-09-28T11:47:29.629Z,994.63
2022-09-28T11:48:30.180Z,994.65
2022-09-28T11:49:30.734Z,994.63
2022-09-28T11:50:29.220Z,994.62
2022-09-28T11:51:29.243Z,994.64
2022-09-28T11:52:30.053Z,994.62
2022-09-28T11:53:29.173Z,994.63
2022-09-28T11:54:30.134Z,994.67
2022-09-28T11:55:29.209Z,994.64
2022-09-28T11:56:29.155Z,994.68
2022-09-28T11:57:29.140Z,994.66
2022-09-28T11:58:29.109Z,994.73
2022-09-28T11:59:29.244Z,994.74
2022-09-28T12:00:29.115Z,994.70
2022-09-28T12:01:29.579Z,994.78
2022-09-28T12:02:29.960Z,994.79
2022-09-28T12:03:29.176Z,994.77
2022-09-28T12:04:29.924Z,994.73
2022-09-28T12:05:29.054Z,994.78
2022-09-28T12:06:30.007Z,994.78
2022-09-28T12:07:29.051Z,994.81
2022-09-28T12:08:29.799Z,994.91
2022-09-28T12:09:29.700Z,994.83
2022-09-28T12:10:30.402Z,994.90
2022-09-28T12:11:29.760Z,994.81
2022-09-28T12:12:29.675Z,994.80
2022-09-28T12:13:29.830Z,994.73
2022-09-28T12:14:28.880Z,994.84
2022-09-28T12:15:35.008Z,994.79
2022-09-28T12:17:03.642Z,994.82
2022-09-28T12:17:30.101Z,994.82
2022-09-28T12:18:29.603Z,994.81
2022-09-28T12:19:29.763Z,994.82
2022-09-28T12:20:29.679Z,994.85
2022-09-28T12:21:28.825Z,994.72
2022-09-28T12:22:29.755Z,994.72
2022-09-28T12:23:29.637Z,994.79
2022-09-28T12:24:29.105Z,994.81
2022-09-28T12:25:29.221Z,994.84
2022-09-28T12:26:29.624Z,994.77
2022-09-28T12:27:29.506Z,994.80
2022-09-28T12:28:29.672Z,994.84
2022-09-28T12:29:29.087Z,994.75
2022-09-28T12:30:28.732Z,994.78
2022-09-28T12:31:30.089Z,994.79
2022-09-28T12:32:29.546Z,994.75
2022-09-28T12:33:29.446Z,994.77
2022-09-28T12:34:29.364Z,994.79
2022-09-28T12:35:29.510Z,994.82
2022-09-28T12:36:29.413Z,994.83
2022-09-28T12:37:29.311Z,994.80
2022-09-28T12:38:28.579Z,994.79
2022-09-28T12:39:46.790Z,994.80
2022-09-28T12:40:30.385Z,994.78
2022-09-28T12:41:29.445Z,994.83
2022-09-28T12:42:28.650Z,994.79
2022-09-28T12:43:28.536Z,994.75
2022-09-28T12:44:29.440Z,994.87
2022-09-28T12:45:32.848Z,994.81
2022-09-28T12:46:29.718Z,994.74
2022-09-28T12:47:29.924Z,994.76
2022-09-28T12:48:29.315Z,994.74
2022-09-28T12:50:52.751Z,994.65
2022-09-28T12:51:29.647Z,994.68
2022-09-28T12:52:28.448Z,994.66
2022-09-28T12:53:29.317Z,994.67
2022-09-28T12:54:29.274Z,994.66
2022-09-28T12:55:29.128Z,994.77
2022-09-28T12:56:29.316Z,994.70
2022-09-28T12:57:28.313Z,994.80
2022-09-28T12:58:29.091Z,994.81
2022-09-28T12:59:29.259Z,994.80
2022-09-28T13:00:29.158Z,994.80
2022-09-28T13:01:29.214Z,994.82
2022-09-28T13:02:29.031Z,994.82
2022-09-28T13:03:29.123Z,994.88
2022-09-28T13:04:28.201Z,994.82
2022-09-28T13:05:28.532Z,994.79
2022-09-28T13:06:29.092Z,994.82
2022-09-28T13:07:29.007Z,994.87
2022-09-28T13:08:28.167Z,994.87
2022-09-28T13:09:28.154Z,994.81
2022-09-28T13:10:28.964Z,994.88
2022-09-28T13:11:28.225Z,994.81
2022-09-28T13:12:29.032Z,994.83
2022-09-28T13:13:29.613Z,994.82
2022-09-28T13:14:28.056Z,994.92
2022-09-28T13:15:28.076Z,994.87
2022-09-28T13:16:28.907Z,994.87
2022-09-28T13:17:28.005Z,994.90
2022-09-28T13:18:29.453Z,994.74
2022-09-28T13:19:28.872Z,994.78
2022-09-28T13:20:27.956Z,994.81
2022-09-28T13:21:28.935Z,994.77
2022-09-28T13:22:28.837Z,994.77
2022-09-28T13:23:28.744Z,994.78
2022-09-28T13:24:32.863Z,994.77
2022-09-28T13:25:27.977Z,994.79
2022-09-28T13:26:28.709Z,994.80
2022-09-28T13:27:28.616Z,994.82
2022-09-28T13:28:29.322Z,994.75